createdAt,value
2023-04-21T00:00:28.746Z,975.96
2023-04-21T00:01:28.736Z,975.96
2023-04-21T00:02:28.762Z,975.95
2023-04-21T00:03:28.947Z,975.89
2023-04-21T00:04:29.179Z,975.92
2023-04-21T00:05:28.772Z,975.88
2023-04-21T00:06:28.678Z,975.98
2023-04-21T00:07:28.648Z,975.84
2023-04-21T00:08:28.649Z,975.92
2023-04-21T00:09:28.623Z,975.91
2023-04-21T00:10:28.621Z,975.88
2023-04-21T00:11:28.651Z,975.96
2023-04-21T00:12:28.582Z,975.91
2023-04-21T00:13:28.586Z,975.96
2023-04-21T00:14:28.594Z,975.98
2023-04-21T00:15:28.550Z,975.98
2023-04-21T00:16:28.595Z,975.98
2023-04-21T00:17:28.584Z,975.88
2023-04-21T00:18:28.522Z,975.83
2023-04-21T00:19:28.523Z,975.86
2023-04-21T00:20:28.488Z,975.84
2023-04-21T00:21:28.491Z,975.75
2023-04-21T00:22:28.486Z,975.77
2023-04-21T00:23:28.455Z,975.75
2023-04-21T00:24:28.462Z,975.78
2023-04-21T00:25:28.443Z,975.77
2023-04-21T00:26:28.414Z,975.78
2023-04-21T00:27:28.394Z,975.73
2023-04-21T00:28:28.400Z,975.72
2023-04-21T00:29:28.461Z,975.73
2023-04-21T00:30:28.381Z,975.73
2023-04-21T00:31:28.410Z,975.64
2023-04-21T00:32:28.359Z,975.69
2023-04-21T00:33:28.335Z,975.63
2023-04-21T00:34:28.323Z,975.64
2023-04-21T00:35:28.325Z,975.68
2023-04-21T00:36:28.282Z,975.62
2023-04-21T00:37:28.284Z,975.59
2023-04-21T00:38:28.273Z,975.58
2023-04-21T00:39:28.269Z,975.63
2023-04-21T00:40:28.272Z,975.61
2023-04-21T00:41:28.248Z,975.56
2023-04-21T00:42:28.239Z,975.56
2023-04-21T00:43:28.223Z,975.60
2023-04-21T00:44:28.184Z,975.58
2023-04-21T00:45:28.209Z,975.55
2023-04-21T00:46:28.201Z,975.52
2023-04-21T00:47:28.191Z,975.48
2023-04-21T00:48:28.147Z,975.58
2023-04-21T00:49:28.143Z,975.52
2023-04-21T00:50:28.154Z,975.62
2023-04-21T00:51:28.108Z,975.57
2023-04-21T00:52:28.099Z,975.57
2023-04-21T00:53:28.084Z,975.53
2023-04-21T00:54:28.068Z,975.51
2023-04-21T00:55:28.076Z,975.55
2023-04-21T00:56:28.048Z,975.53
2023-04-21T00:57:28.027Z,975.52
2023-04-21T00:58:28.030Z,975.51
2023-04-21T00:59:28.011Z,975.48
2023-04-21T01:00:28.011Z,975.47
2023-04-21T01:01:28.030Z,975.51
2023-04-21T01:02:28.065Z,975.54
2023-04-21T01:03:28.151Z,975.55
2023-04-21T01:04:27.920Z,975.57
2023-04-21T01:05:27.954Z,975.60
2023-04-21T01:06:27.920Z,975.55
2023-04-21T01:07:27.915Z,975.51
2023-04-21T01:08:27.901Z,975.51
2023-04-21T01:09:27.899Z,975.47
2023-04-21T01:10:27.867Z,975.48
2023-04-21T01:11:27.889Z,975.51
2023-04-21T01:12:27.851Z,975.57
2023-04-21T01:13:27.842Z,975.53
2023-04-21T01:14:27.834Z,975.51
2023-04-21T01:15:27.832Z,975.53
2023-04-21T01:16:27.819Z,975.58
2023-04-21T01:17:27.815Z,975.53
2023-04-21T01:18:27.749Z,975.55
2023-04-21T01:19:27.756Z,975.58
2023-04-21T01:20:27.748Z,975.56
2023-04-21T01:21:27.748Z,975.58
2023-04-21T01:22:27.717Z,975.53
2023-04-21T01:23:27.706Z,975.61
2023-04-21T01:24:27.686Z,975.56
2023-04-21T01:25:27.690Z,975.59
2023-04-21T01:26:27.676Z,975.55
2023-04-21T01:27:27.664Z,975.59
2023-04-21T01:28:27.622Z,975.59
2023-04-21T01:29:27.626Z,975.59
2023-04-21T01:30:27.637Z,975.63
2023-04-21T01:31:27.681Z,975.61
2023-04-21T01:32:27.641Z,975.63
2023-04-21T01:33:27.587Z,975.63
2023-04-21T01:34:27.564Z,975.66
2023-04-21T01:35:27.557Z,975.61
2023-04-21T01:36:27.543Z,975.64
2023-04-21T01:37:27.554Z,975.71
2023-04-21T01:38:27.537Z,975.70
2023-04-21T01:39:27.510Z,975.68
2023-04-21T01:40:27.505Z,975.67
2023-04-21T01:41:27.498Z,975.64
2023-04-21T01:42:27.481Z,975.68
2023-04-21T01:43:27.454Z,975.69
2023-04-21T01:44:27.452Z,975.70
2023-04-21T01:45:27.442Z,975.68
2023-04-21T01:46:27.469Z,975.71
2023-04-21T01:47:27.713Z,975.71
2023-04-21T01:48:27.395Z,975.68
2023-04-21T01:49:27.396Z,975.66
2023-04-21T01:50:27.380Z,975.68
2023-04-21T01:51:27.353Z,975.70
2023-04-21T01:52:27.350Z,975.68
2023-04-21T01:53:27.349Z,975.67
2023-04-21T01:54:27.310Z,975.67
2023-04-21T01:55:27.318Z,975.63
2023-04-21T01:56:27.333Z,975.71
2023-04-21T01:57:27.289Z,975.76
2023-04-21T01:58:27.288Z,975.74
2023-04-21T01:59:27.257Z,975.71
2023-04-21T02:00:27.252Z,975.70
2023-04-21T02:01:27.320Z,975.72
2023-04-21T02:02:27.352Z,975.72
2023-04-21T02:03:27.454Z,975.75
2023-04-21T02:04:27.290Z,975.75
2023-04-21T02:05:27.186Z,975.69
2023-04-21T02:06:27.168Z,975.80
2023-04-21T02:07:27.173Z,975.76
2023-04-21T02:08:27.164Z,975.72
2023-04-21T02:09:27.144Z,975.71
2023-04-21T02:10:27.129Z,975.72
2023-04-21T02:11:27.112Z,975.75
2023-04-21T02:12:27.093Z,975.73
2023-04-21T02:13:27.093Z,975.74
2023-04-21T02:14:27.057Z,975.77
2023-04-21T02:15:27.105Z,975.67
2023-04-21T02:16:27.058Z,975.75
2023-04-21T02:17:27.027Z,975.74
2023-04-21T02:18:27.022Z,975.72
2023-04-21T02:19:27.004Z,975.69
2023-04-21T02:20:27.005Z,975.70
2023-04-21T02:21:26.987Z,975.72
2023-04-21T02:22:26.949Z,975.71
2023-04-21T02:23:26.961Z,975.69
2023-04-21T02:24:26.930Z,975.74
2023-04-21T02:25:26.931Z,975.79
2023-04-21T02:26:26.905Z,975.68
2023-04-21T02:27:26.899Z,975.73
2023-04-21T02:28:26.881Z,975.70
2023-04-21T02:29:26.871Z,975.68
2023-04-21T02:30:26.873Z,975.71
2023-04-21T02:31:27.025Z,975.72
2023-04-21T02:32:27.049Z,975.70
2023-04-21T02:33:26.872Z,975.71
2023-04-21T02:34:26.822Z,975.69
2023-04-21T02:35:26.798Z,975.64
2023-04-21T02:36:26.791Z,975.64
2023-04-21T02:37:26.779Z,975.66
2023-04-21T02:38:26.771Z,975.66
2023-04-21T02:39:26.759Z,975.60
2023-04-21T02:40:26.725Z,975.62
2023-04-21T02:41:26.728Z,975.59
2023-04-21T02:42:26.706Z,975.56
2023-04-21T02:43:26.698Z,975.64
2023-04-21T02:44:26.701Z,975.55
2023-04-21T02:45:26.684Z,975.57
2023-04-21T02:46:26.693Z,975.61
2023-04-21T02:47:26.793Z,975.59
2023-04-21T02:48:26.626Z,975.57
2023-04-21T02:49:26.623Z,975.57
2023-04-21T02:50:26.583Z,975.55
2023-04-21T02:51:26.583Z,975.55
2023-04-21T02:52:26.582Z,975.56
2023-04-21T02:53:26.561Z,975.48
2023-04-21T02:54:26.546Z,975.56
2023-04-21T02:55:26.541Z,975.55
2023-04-21T02:56:26.518Z,975.54
2023-04-21T02:57:26.522Z,975.55
2023-04-21T02:58:26.518Z,975.58
2023-04-21T02:59:26.499Z,975.52
2023-04-21T03:00:26.527Z,975.53
2023-04-21T03:01:26.628Z,975.65
2023-04-21T03:02:26.618Z,975.63
2023-04-21T03:03:26.545Z,975.63
2023-04-21T03:04:26.664Z,975.59
2023-04-21T03:05:26.407Z,975.57
2023-04-21T03:06:26.390Z,975.60
2023-04-21T03:07:26.391Z,975.67
2023-04-21T03:08:26.353Z,975.51
2023-04-21T03:09:26.366Z,975.59
2023-04-21T03:10:26.332Z,975.61
2023-04-21T03:11:26.364Z,975.54
2023-04-21T03:12:26.311Z,975.59
2023-04-21T03:13:26.296Z,975.54
2023-04-21T03:14:26.313Z,975.58
2023-04-21T03:15:26.292Z,975.54
2023-04-21T03:16:26.311Z,975.62
2023-04-21T03:17:26.261Z,975.52
2023-04-21T03:18:26.312Z,975.61
2023-04-21T03:19:26.233Z,975.59
2023-04-21T03:20:26.228Z,975.56
2023-04-21T03:21:26.229Z,975.54
2023-04-21T03:22:26.175Z,975.61
2023-04-21T03:23:26.171Z,975.56
2023-04-21T03:24:26.169Z,975.63
2023-04-21T03:25:26.153Z,975.62
2023-04-21T03:26:26.179Z,975.60
2023-04-21T03:27:26.115Z,975.60
2023-04-21T03:28:26.111Z,975.66
2023-04-21T03:29:26.097Z,975.62
2023-04-21T03:30:26.090Z,975.62
2023-04-21T03:31:26.133Z,975.59
2023-04-21T03:32:26.110Z,975.64
2023-04-21T03:33:26.115Z,975.67
2023-04-21T03:34:26.035Z,975.61
2023-04-21T03:35:26.055Z,975.62
2023-04-21T03:36:26.029Z,975.66
2023-04-21T03:37:26.032Z,975.68
2023-04-21T03:38:25.994Z,975.73
2023-04-21T03:39:26.277Z,975.69
2023-04-21T03:40:25.953Z,975.65
2023-04-21T03:41:25.974Z,975.67
2023-04-21T03:42:25.926Z,975.68
2023-04-21T03:43:25.920Z,975.70
2023-04-21T03:44:25.913Z,975.64
2023-04-21T03:45:25.914Z,975.65
2023-04-21T03:46:25.934Z,975.65
2023-04-21T03:47:25.923Z,975.64
2023-04-21T03:48:25.850Z,975.74
2023-04-21T03:49:25.835Z,975.71
2023-04-21T04:03:03.097Z,975.67
2023-04-21T04:04:03.185Z,975.60
2023-04-21T04:05:03.027Z,975.63
2023-04-21T04:06:02.936Z,975.60
2023-04-21T04:07:02.961Z,975.57
2023-04-21T04:08:02.908Z,975.53
2023-04-21T04:09:02.875Z,975.60
2023-04-21T04:10:02.891Z,975.62
2023-04-21T04:11:02.857Z,975.60
2023-04-21T04:12:02.882Z,975.63
2023-04-21T04:13:02.840Z,975.59
2023-04-21T04:14:02.844Z,975.66
2023-04-21T04:15:02.846Z,975.67
2023-04-21T04:16:02.857Z,975.69
2023-04-21T04:17:02.802Z,975.65
2023-04-21T04:18:02.831Z,975.65
2023-04-21T04:19:02.787Z,975.68
2023-04-21T04:20:02.747Z,975.65
2023-04-21T04:21:02.729Z,975.65
2023-04-21T04:22:02.735Z,975.66
2023-04-21T04:23:02.705Z,975.63
2023-04-21T04:24:02.704Z,975.65
2023-04-21T04:25:02.685Z,975.64
2023-04-21T04:26:02.668Z,975.67
2023-04-21T04:27:02.689Z,975.63
2023-04-21T04:28:02.644Z,975.71
2023-04-21T04:29:02.651Z,975.66
2023-04-21T04:30:02.616Z,975.74
2023-04-21T04:31:02.649Z,975.75
2023-04-21T04:32:02.609Z,975.67
2023-04-21T04:33:02.649Z,975.70
2023-04-21T04:34:02.567Z,975.65
2023-04-21T04:35:02.560Z,975.69
2023-04-21T04:36:02.559Z,975.68
2023-04-21T04:37:02.570Z,975.71
2023-04-21T04:38:02.504Z,975.69
2023-04-21T04:39:02.517Z,975.73
2023-04-21T04:40:02.500Z,975.72
2023-04-21T04:41:02.560Z,975.71
2023-04-21T04:42:02.512Z,975.63
2023-04-21T04:43:02.457Z,975.67
2023-04-21T04:44:02.440Z,975.67
2023-04-21T04:45:02.439Z,975.74
2023-04-21T04:46:02.415Z,975.70
2023-04-21T04:47:02.517Z,975.68
2023-04-21T04:48:02.404Z,975.71
2023-04-21T04:49:02.385Z,975.69
2023-04-21T04:50:02.365Z,975.72
2023-04-21T04:51:02.345Z,975.73
2023-04-21T04:52:02.378Z,975.73
2023-04-21T04:53:02.318Z,975.79
2023-04-21T04:54:02.322Z,975.75
2023-04-21T04:55:02.332Z,975.72
2023-04-21T04:56:02.273Z,975.72
2023-04-21T04:57:02.299Z,975.71
2023-04-21T04:58:02.258Z,975.75
2023-04-21T04:59:02.260Z,975.76
2023-04-21T05:00:02.227Z,975.73
2023-04-21T05:01:02.220Z,975.70
2023-04-21T05:02:02.275Z,975.67
2023-04-21T05:03:02.344Z,975.69
2023-04-21T05:04:02.363Z,975.74
2023-04-21T05:05:02.249Z,975.66
2023-04-21T05:06:02.166Z,975.71
2023-04-21T05:07:02.158Z,975.72
2023-04-21T05:08:02.206Z,975.69
2023-04-21T05:09:02.145Z,975.70
2023-04-21T05:10:02.116Z,975.67
2023-04-21T05:11:02.086Z,975.71
2023-04-21T05:12:02.079Z,975.75
2023-04-21T05:13:02.087Z,975.74
2023-04-21T05:14:02.061Z,975.83
2023-04-21T05:15:02.051Z,975.79
2023-04-21T05:16:02.086Z,975.78
2023-04-21T05:17:02.121Z,975.75
2023-04-21T05:18:02.036Z,975.86
2023-04-21T05:19:02.001Z,975.89
2023-04-21T05:20:01.966Z,975.89
2023-04-21T05:21:01.960Z,975.90
2023-04-21T05:22:01.981Z,975.81
2023-04-21T05:23:01.933Z,975.80
2023-04-21T05:24:01.933Z,975.87
2023-04-21T05:25:01.919Z,975.84
2023-04-21T05:26:04.126Z,975.84
2023-04-21T05:27:01.926Z,975.83
2023-04-21T05:28:01.876Z,975.83
2023-04-21T05:29:01.866Z,975.78
2023-04-21T05:30:01.843Z,975.79
2023-04-21T05:31:01.850Z,975.79
2023-04-21T05:32:01.993Z,975.81
2023-04-21T05:33:01.837Z,975.84
2023-04-21T05:34:01.792Z,975.83
2023-04-21T05:35:01.786Z,975.83
2023-04-21T05:36:01.767Z,975.79
2023-04-21T05:37:01.790Z,975.82
2023-04-21T05:38:01.748Z,975.80
2023-04-21T05:39:01.764Z,975.74
2023-04-21T05:40:01.713Z,975.77
2023-04-21T05:41:01.709Z,975.79
2023-04-21T05:42:01.702Z,975.81
2023-04-21T05:43:01.694Z,975.75
2023-04-21T05:44:01.684Z,975.80
2023-04-21T05:45:01.652Z,975.83
2023-04-21T05:46:01.762Z,975.83
2023-04-21T05:47:01.649Z,975.74
2023-04-21T05:48:01.681Z,975.76
2023-04-21T05:49:01.608Z,975.75
2023-04-21T05:50:01.582Z,975.77
2023-04-21T05:51:01.603Z,975.73
2023-04-21T05:52:01.559Z,975.73
2023-04-21T05:53:01.571Z,975.76
2023-04-21T05:54:01.545Z,975.71
2023-04-21T05:55:01.539Z,975.73
2023-04-21T05:56:01.517Z,975.68
2023-04-21T05:57:01.518Z,975.74
2023-04-21T05:58:01.517Z,975.68
2023-04-21T05:59:01.495Z,975.70
2023-04-21T06:00:01.481Z,975.70
2023-04-21T06:01:01.468Z,975.69
2023-04-21T06:02:01.492Z,975.71
2023-04-21T06:03:01.627Z,975.73
2023-04-21T06:04:01.639Z,975.69
2023-04-21T06:05:01.768Z,975.75
2023-04-21T06:06:01.451Z,975.78
2023-04-21T06:07:01.442Z,975.72
2023-04-21T06:08:01.378Z,975.78
2023-04-21T06:09:01.361Z,975.78
2023-04-21T06:10:01.370Z,975.77
2023-04-21T06:11:01.318Z,975.80
2023-04-21T06:12:01.333Z,975.77
2023-04-21T06:13:01.303Z,975.79
2023-04-21T06:14:01.287Z,975.75
2023-04-21T06:15:01.287Z,975.84
2023-04-21T06:16:01.303Z,975.85
2023-04-21T06:17:01.306Z,975.85
2023-04-21T06:18:01.357Z,975.81
2023-04-21T06:19:01.238Z,975.81
2023-04-21T06:20:01.231Z,975.86
2023-04-21T06:21:01.231Z,975.86
2023-04-21T06:22:01.216Z,975.88
2023-04-21T06:23:01.218Z,975.94
2023-04-21T06:24:01.154Z,975.92
2023-04-21T06:25:01.205Z,975.93
2023-04-21T06:26:01.172Z,975.84
2023-04-21T06:27:01.138Z,975.86
2023-04-21T06:28:01.136Z,975.79
2023-04-21T06:29:01.105Z,975.82
2023-04-21T06:30:01.105Z,975.82
2023-04-21T06:31:01.108Z,975.79
2023-04-21T06:32:01.119Z,975.81
2023-04-21T06:33:01.113Z,975.85
2023-04-21T06:34:01.035Z,975.75
2023-04-21T06:35:01.041Z,975.80
2023-04-21T06:36:01.005Z,975.75
2023-04-21T06:37:01.037Z,975.78
2023-04-21T06:38:01.028Z,975.83
2023-04-21T06:39:00.979Z,975.74
2023-04-21T06:40:01.015Z,975.74
2023-04-21T06:41:00.944Z,975.73
2023-04-21T06:42:00.922Z,975.75
2023-04-21T06:43:00.931Z,975.70
2023-04-21T06:44:00.913Z,975.72
2023-04-21T06:45:00.903Z,975.65
2023-04-21T06:46:00.891Z,975.67
2023-04-21T06:47:00.905Z,975.66
2023-04-21T06:48:00.866Z,975.67
2023-04-21T06:49:00.874Z,975.67
2023-04-21T06:50:00.834Z,975.63
2023-04-21T06:51:00.818Z,975.64
2023-04-21T06:52:00.810Z,975.68
2023-04-21T06:53:00.808Z,975.63
2023-04-21T06:54:00.807Z,975.62
2023-04-21T06:55:00.761Z,975.60
2023-04-21T06:56:00.748Z,975.64
2023-04-21T06:57:00.747Z,975.62
2023-04-21T06:58:00.831Z,975.67
2023-04-21T06:59:00.702Z,975.67
2023-04-21T07:00:00.704Z,975.68
2023-04-21T07:01:00.726Z,975.68
2023-04-21T07:02:00.690Z,975.70
2023-04-21T07:03:00.723Z,975.68
2023-04-21T07:04:00.699Z,975.66
2023-04-21T07:05:00.638Z,975.67
2023-04-21T07:06:00.620Z,975.71
2023-04-21T07:07:03.112Z,975.70
2023-04-21T07:08:00.629Z,975.67
2023-04-21T07:09:00.588Z,975.67
2023-04-21T07:10:00.563Z,975.68
2023-04-21T07:11:00.565Z,975.62
2023-04-21T07:12:00.538Z,975.67
2023-04-21T07:13:00.597Z,975.67
2023-04-21T07:14:00.505Z,975.67
2023-04-21T07:15:00.512Z,975.65
2023-04-21T07:16:00.499Z,975.69
2023-04-21T07:17:00.583Z,975.68
2023-04-21T07:18:00.600Z,975.68
2023-04-21T07:19:00.459Z,975.64
2023-04-21T07:20:00.460Z,975.70
2023-04-21T07:21:00.457Z,975.67
2023-04-21T07:22:00.428Z,975.67
2023-04-21T07:23:00.429Z,975.69
2023-04-21T07:24:00.412Z,975.64
2023-04-21T07:25:00.407Z,975.66
2023-04-21T07:26:00.364Z,975.73
2023-04-21T07:27:00.355Z,975.75
2023-04-21T07:28:00.390Z,975.73
2023-04-21T07:29:00.342Z,975.74
2023-04-21T07:30:00.331Z,975.73
2023-04-21T07:31:02.300Z,975.74
2023-04-21T07:32:00.286Z,975.71
2023-04-21T07:33:00.372Z,975.69
2023-04-21T07:34:00.262Z,975.68
2023-04-21T07:35:00.280Z,975.77
2023-04-21T07:36:00.236Z,975.72
2023-04-21T07:37:00.243Z,975.69
2023-04-21T07:38:00.218Z,975.65
2023-04-21T07:39:00.257Z,975.65
2023-04-21T07:40:00.223Z,975.66
2023-04-21T07:41:00.182Z,975.72
2023-04-21T07:42:00.181Z,975.59
2023-04-21T07:43:00.168Z,975.67
2023-04-21T07:44:00.141Z,975.62
2023-04-21T07:45:00.153Z,975.62
2023-04-21T07:46:00.176Z,975.67
2023-04-21T07:47:00.118Z,975.61
2023-04-21T07:48:00.206Z,975.65
2023-04-21T07:49:02.066Z,975.62
2023-04-21T07:50:00.050Z,975.60
2023-04-21T07:51:00.047Z,975.57
2023-04-21T07:52:00.029Z,975.59
2023-04-21T07:53:00.025Z,975.63
2023-04-21T07:54:00.024Z,975.57
2023-04-21T07:54:59.996Z,975.58
2023-04-21T07:55:59.971Z,975.57
2023-04-21T07:56:59.973Z,975.64
2023-04-21T07:57:59.964Z,975.62
2023-04-21T07:58:59.934Z,975.62
2023-04-21T07:59:59.966Z,975.61
2023-04-21T08:00:59.923Z,975.62
2023-04-21T08:01:59.949Z,975.60
2023-04-21T08:03:00.024Z,975.59
2023-04-21T08:04:00.056Z,975.50
2023-04-21T08:04:59.992Z,975.48
2023-04-21T08:06:00.134Z,975.51
2023-04-21T08:06:59.947Z,975.59
2023-04-21T08:07:59.829Z,975.59
2023-04-21T08:08:59.806Z,975.60
2023-04-21T08:09:59.807Z,975.62
2023-04-21T08:10:59.782Z,975.59
2023-04-21T08:11:59.760Z,975.62
2023-04-21T08:12:59.782Z,975.62
2023-04-21T08:13:59.775Z,975.64
2023-04-21T08:14:59.738Z,975.65
2023-04-21T08:15:59.739Z,975.57
2023-04-21T08:16:59.782Z,975.59
2023-04-21T08:17:59.743Z,975.63
2023-04-21T08:18:59.944Z,975.57
2023-04-21T08:20:00.015Z,975.53
2023-04-21T08:20:59.660Z,975.60
2023-04-21T08:21:59.636Z,975.58
2023-04-21T08:22:59.705Z,975.56
2023-04-21T08:23:59.625Z,975.53
2023-04-21T08:24:59.604Z,975.57
2023-04-21T08:25:59.645Z,975.55
2023-04-21T08:26:59.619Z,975.60
2023-04-21T08:27:59.582Z,975.58
2023-04-21T08:29:00.387Z,975.61
2023-04-21T08:29:59.545Z,975.57
2023-04-21T08:30:59.567Z,975.52
2023-04-21T08:31:59.753Z,975.55
2023-04-21T08:32:59.548Z,975.57
2023-04-21T08:34:02.494Z,975.53
2023-04-21T08:34:59.496Z,975.59
2023-04-21T08:36:07.380Z,975.53
2023-04-21T08:37:00.453Z,975.53
2023-04-21T08:37:59.436Z,975.45
2023-04-21T08:38:59.435Z,975.53
2023-04-21T08:39:59.426Z,975.51
2023-04-21T08:40:59.455Z,975.47
2023-04-21T08:41:59.403Z,975.43
2023-04-21T08:42:59.612Z,975.47
2023-04-21T08:43:59.369Z,975.43
2023-04-21T08:44:59.371Z,975.40
2023-04-21T08:45:59.378Z,975.43
2023-04-21T08:46:59.339Z,975.43
2023-04-21T08:47:59.349Z,975.47
2023-04-21T08:48:59.314Z,975.42
2023-04-21T08:49:59.299Z,975.38
2023-04-21T08:50:59.263Z,975.35
2023-04-21T08:51:59.285Z,975.43
2023-04-21T08:52:59.264Z,975.49
2023-04-21T08:53:59.232Z,975.39
2023-04-21T08:54:59.245Z,975.46
2023-04-21T08:56:10.018Z,975.42
2023-04-21T08:57:11.815Z,975.43
2023-04-21T08:58:00.208Z,975.43
2023-04-21T08:58:59.172Z,975.47
2023-04-21T08:59:59.153Z,975.39
2023-04-21T09:00:59.201Z,975.41
2023-04-21T09:01:59.134Z,975.40
2023-04-21T09:03:01.416Z,975.43
2023-04-21T09:03:59.373Z,975.38
2023-04-21T09:04:59.531Z,975.38
2023-04-21T09:05:59.288Z,975.39
2023-04-21T09:06:59.222Z,975.38
2023-04-21T09:07:59.077Z,975.36
2023-04-21T09:08:59.058Z,975.46
2023-04-21T09:09:59.134Z,975.37
2023-04-21T09:10:59.026Z,975.41
2023-04-21T09:11:59.062Z,975.30
2023-04-21T09:12:58.968Z,975.33
2023-04-21T09:13:59.094Z,975.38
2023-04-21T09:14:58.965Z,975.44
2023-04-21T09:15:58.944Z,975.32
2023-04-21T09:16:59.023Z,975.33
2023-04-21T09:17:58.979Z,975.35
2023-04-21T09:18:58.910Z,975.30
2023-04-21T09:19:58.895Z,975.33
2023-04-21T09:20:58.884Z,975.41
2023-04-21T09:21:58.888Z,975.33
2023-04-21T09:22:58.870Z,975.36
2023-04-21T09:23:58.835Z,975.27
2023-04-21T09:24:58.823Z,975.25
2023-04-21T09:25:58.817Z,975.33
2023-04-21T09:26:58.848Z,975.31
2023-04-21T09:27:58.805Z,975.25
2023-04-21T09:28:58.788Z,975.26
2023-04-21T09:29:58.768Z,975.30
2023-04-21T09:30:58.820Z,975.30
2023-04-21T09:31:58.758Z,975.23
2023-04-21T09:32:58.764Z,975.19
2023-04-21T09:34:00.717Z,975.23
2023-04-21T09:34:58.722Z,975.15
2023-04-21T09:35:58.712Z,975.18
2023-04-21T09:36:58.698Z,975.22
2023-04-21T09:37:58.654Z,975.23
2023-04-21T09:39:24.345Z,975.22
2023-04-21T09:40:58.624Z,975.14
2023-04-21T09:41:58.620Z,975.09
2023-04-21T09:42:58.612Z,975.11
2023-04-21T09:43:58.603Z,975.14
2023-04-21T09:45:10.880Z,975.15
2023-04-21T09:45:59.649Z,975.18
2023-04-21T09:46:58.544Z,975.16
2023-04-21T10:03:02.216Z,975.05
2023-04-21T10:04:02.228Z,975.08
2023-04-21T10:05:02.297Z,975.03
2023-04-21T10:06:02.146Z,975.14
2023-04-21T10:07:02.098Z,975.07
2023-04-21T10:08:02.051Z,975.05
2023-04-21T10:09:02.059Z,975.07
2023-04-21T10:10:02.019Z,975.02
2023-04-21T10:11:02.011Z,975.04
2023-04-21T10:12:02.014Z,975.07
2023-04-21T10:13:01.974Z,975.10
2023-04-21T10:14:01.984Z,975.00
2023-04-21T10:15:02.012Z,975.04
2023-04-21T10:16:01.942Z,975.04
2023-04-21T10:17:01.939Z,975.00
2023-04-21T10:18:01.969Z,974.99
2023-04-21T10:19:01.919Z,974.92
2023-04-21T10:20:01.917Z,974.84
2023-04-21T10:21:01.874Z,974.98
2023-04-21T10:22:01.867Z,974.84
2023-04-21T10:23:01.851Z,974.85
2023-04-21T10:24:01.860Z,974.88
2023-04-21T10:25:01.834Z,974.86
2023-04-21T10:26:01.807Z,974.81
2023-04-21T10:27:01.835Z,974.76
2023-04-21T10:28:01.797Z,974.78
2023-04-21T10:29:01.789Z,974.76
2023-04-21T10:30:01.774Z,974.77
2023-04-21T10:31:01.754Z,974.75
2023-04-21T10:32:01.897Z,974.78
2023-04-21T10:33:01.833Z,974.76
2023-04-21T10:34:01.748Z,974.78
2023-04-21T10:35:01.698Z,974.73
2023-04-21T10:36:01.703Z,974.72
2023-04-21T10:37:01.694Z,974.69
2023-04-21T10:38:01.642Z,974.58
2023-04-21T10:39:01.640Z,974.62
2023-04-21T10:40:01.667Z,974.62
2023-04-21T10:41:01.601Z,974.62
2023-04-21T10:42:01.644Z,974.68
2023-04-21T10:43:01.587Z,974.59
2023-04-21T10:44:08.592Z,974.59
2023-04-21T10:45:01.566Z,974.67
2023-04-21T10:46:01.541Z,974.68
2023-04-21T10:47:01.551Z,974.64
2023-04-21T10:48:01.596Z,974.69
2023-04-21T10:49:01.504Z,974.70
2023-04-21T10:50:01.534Z,974.66
2023-04-21T10:51:01.488Z,974.66
2023-04-21T10:52:01.497Z,974.62
2023-04-21T10:53:01.461Z,974.63
2023-04-21T10:54:01.445Z,974.62
2023-04-21T10:55:01.478Z,974.61
2023-04-21T10:56:01.428Z,974.57
2023-04-21T10:57:01.430Z,974.54
2023-04-21T10:58:01.418Z,974.47
2023-04-21T10:59:01.392Z,974.51
2023-04-21T11:00:01.384Z,974.60
2023-04-21T11:01:01.434Z,974.56
2023-04-21T11:02:01.471Z,974.56
2023-04-21T11:03:01.564Z,974.55
2023-04-21T11:04:01.488Z,974.55
2023-04-21T11:05:01.498Z,974.58
2023-04-21T11:06:01.292Z,974.54
2023-04-21T11:07:01.294Z,974.50
2023-04-21T11:08:01.293Z,974.41
2023-04-21T11:09:01.251Z,974.40
2023-04-21T11:10:01.263Z,974.42
2023-04-21T11:11:01.252Z,974.47
2023-04-21T11:12:01.207Z,974.39
2023-04-21T11:13:01.204Z,974.38
2023-04-21T11:14:01.195Z,974.40
2023-04-21T11:15:01.202Z,974.39
2023-04-21T11:16:01.161Z,974.30
2023-04-21T11:17:01.281Z,974.37
2023-04-21T11:18:01.201Z,974.39
2023-04-21T11:19:01.154Z,974.40
2023-04-21T11:20:01.134Z,974.30
2023-04-21T11:21:01.117Z,974.34
2023-04-21T11:22:08.077Z,974.37
2023-04-21T11:23:01.061Z,974.35
2023-04-21T11:24:01.058Z,974.35
2023-04-21T11:25:01.096Z,974.40
2023-04-21T11:26:01.015Z,974.31
2023-04-21T11:27:08.522Z,974.25
2023-04-21T11:28:00.990Z,974.20
2023-04-21T11:29:07.992Z,974.27
2023-04-21T11:30:07.983Z,974.18
2023-04-21T11:31:08.500Z,974.19
2023-04-21T11:32:07.954Z,974.21
2023-04-21T11:33:00.983Z,974.16
2023-04-21T11:34:00.928Z,974.20
2023-04-21T11:35:00.926Z,974.16
2023-04-21T11:36:00.886Z,974.20
2023-04-21T11:37:00.892Z,974.20
2023-04-21T11:38:00.908Z,974.17
2023-04-21T11:39:00.866Z,974.11
2023-04-21T11:40:00.970Z,974.12
2023-04-21T11:41:00.855Z,974.14
2023-04-21T11:42:00.810Z,974.12
2023-04-21T11:43:07.811Z,974.15
2023-04-21T11:44:00.823Z,974.22
2023-04-21T11:45:00.876Z,974.19
2023-04-21T11:46:00.806Z,974.10
2023-04-21T11:47:00.772Z,974.03
2023-04-21T11:48:00.812Z,973.99
2023-04-21T11:49:00.774Z,974.10
2023-04-21T11:50:00.856Z,974.11
2023-04-21T11:51:00.732Z,974.11
2023-04-21T11:52:00.710Z,974.08
2023-04-21T11:53:00.764Z,974.02
2023-04-21T11:54:00.779Z,974.03
2023-04-21T11:55:00.708Z,974.08
2023-04-21T11:56:00.660Z,974.03
2023-04-21T11:57:02.544Z,974.01
2023-04-21T11:58:00.624Z,974.05
2023-04-21T11:59:00.630Z,974.01
2023-04-21T12:00:00.627Z,974.06
2023-04-21T12:01:00.602Z,973.98
2023-04-21T12:02:00.691Z,973.95
2023-04-21T12:03:00.819Z,973.99
2023-04-21T12:04:00.677Z,973.96
2023-04-21T12:05:00.757Z,974.01
2023-04-21T12:06:00.624Z,973.97
2023-04-21T12:07:00.543Z,973.96
2023-04-21T12:08:00.512Z,973.96
2023-04-21T12:09:00.485Z,973.97
2023-04-21T12:10:00.452Z,973.95
2023-04-21T12:11:00.457Z,973.88
2023-04-21T12:12:00.480Z,973.93
2023-04-21T12:13:00.447Z,973.98
2023-04-21T12:14:00.439Z,973.93
2023-04-21T12:15:00.402Z,973.87
2023-04-21T12:16:00.422Z,973.82
2023-04-21T12:17:00.417Z,973.88
2023-04-21T12:18:00.425Z,973.89
2023-04-21T12:19:00.346Z,973.96
2023-04-21T12:20:00.328Z,973.95
2023-04-21T12:21:00.338Z,973.88
2023-04-21T12:22:00.339Z,973.90
2023-04-21T12:23:00.334Z,973.91
2023-04-21T12:24:00.283Z,973.89
2023-04-21T12:25:00.281Z,973.85
2023-04-21T12:26:00.279Z,973.84
2023-04-21T12:27:00.284Z,973.79
2023-04-21T12:28:00.256Z,973.76
2023-04-21T12:29:00.245Z,973.83
2023-04-21T12:30:00.227Z,973.75
2023-04-21T12:31:00.200Z,973.75
2023-04-21T12:32:00.324Z,973.75
2023-04-21T12:33:00.451Z,973.78
2023-04-21T12:34:00.310Z,973.77
2023-04-21T12:35:00.164Z,973.81
2023-04-21T12:36:00.199Z,973.74
2023-04-21T12:37:00.178Z,973.77
2023-04-21T12:38:00.129Z,973.86
2023-04-21T12:39:00.165Z,973.83
2023-04-21T12:40:00.147Z,973.79
2023-04-21T12:41:00.142Z,973.69
2023-04-21T12:42:00.061Z,973.80
2023-04-21T12:43:00.051Z,973.75
2023-04-21T12:44:00.037Z,973.75
2023-04-21T12:45:00.014Z,973.67
2023-04-21T12:46:00.061Z,973.68
2023-04-21T12:47:00.014Z,973.66
2023-04-21T12:48:00.067Z,973.58
2023-04-21T12:48:59.970Z,973.67
2023-04-21T12:49:59.950Z,973.64
2023-04-21T12:50:59.994Z,973.63
2023-04-21T12:51:59.949Z,973.62
2023-04-21T12:52:59.909Z,973.62
2023-04-21T12:53:59.909Z,973.68
2023-04-21T12:54:59.899Z,973.65
2023-04-21T12:56:04.849Z,973.60
2023-04-21T12:57:00.881Z,973.60